createdAt,value
2018-06-17T00:00:28.263Z,16.67
2018-06-17T00:01:49.765Z,16.66
2018-06-17T00:02:28.765Z,16.75
2018-06-17T00:03:28.766Z,16.66
2018-06-17T00:04:28.770Z,16.82
2018-06-17T00:05:50.265Z,16.80
2018-06-17T00:06:29.268Z,16.85
2018-06-17T00:07:50.279Z,16.81
2018-06-17T00:08:29.272Z,16.82
2018-06-17T00:09:50.766Z,16.87
2018-06-17T00:10:29.765Z,16.87
2018-06-17T00:11:43.770Z,16.95
2018-06-17T00:12:29.765Z,16.98
2018-06-17T00:13:30.267Z,16.92
2018-06-17T00:14:50.466Z,16.91
2018-06-17T00:15:30.264Z,16.85
2018-06-17T00:16:30.269Z,16.88
2018-06-17T00:17:30.264Z,16.95
2018-06-17T00:18:30.766Z,16.85
2018-06-17T00:19:31.697Z,16.80
2018-06-17T00:20:30.765Z,16.84
2018-06-17T00:21:32.228Z,16.85
2018-06-17T00:22:31.265Z,16.87
2018-06-17T00:23:31.264Z,16.96
2018-06-17T00:24:31.268Z,16.99
2018-06-17T00:25:31.267Z,16.92
2018-06-17T00:26:31.765Z,16.98
2018-06-17T00:27:31.813Z,16.98
2018-06-17T00:28:31.129Z,16.95
2018-06-17T00:29:31.766Z,17.02
2018-06-17T00:30:54.263Z,17.00
2018-06-17T00:31:53.266Z,17.03
2018-06-17T00:32:32.277Z,16.99
2018-06-17T00:33:32.263Z,17.10
2018-06-17T00:34:52.859Z,17.00
2018-06-17T00:35:32.764Z,17.03
2018-06-17T00:36:53.765Z,17.07
2018-06-17T00:37:32.765Z,17.09
2018-06-17T00:38:35.260Z,17.03
2018-06-17T00:39:33.265Z,17.03
2018-06-17T00:40:35.275Z,16.96
2018-06-17T00:41:33.264Z,17.00
2018-06-17T00:42:33.764Z,16.85
2018-06-17T00:43:33.762Z,16.85
2018-06-17T00:44:33.765Z,16.85
2018-06-17T00:45:33.263Z,16.91
2018-06-17T00:46:35.197Z,16.95
2018-06-17T00:47:33.483Z,16.90
2018-06-17T00:48:34.277Z,16.95
2018-06-17T00:51:05.057Z,16.87
2018-06-17T00:52:05.155Z,16.85
2018-06-17T00:53:05.785Z,16.81
2018-06-17T00:54:27.283Z,16.88
2018-06-17T00:55:05.512Z,16.85
2018-06-17T00:56:07.218Z,16.67
2018-06-17T00:57:06.284Z,16.81
2018-06-17T00:58:06.793Z,16.80
2018-06-17T00:59:27.791Z,16.87
2018-06-17T01:01:44.301Z,16.66
2018-06-17T01:02:38.306Z,16.67
2018-06-17T01:03:38.307Z,16.66
2018-06-17T01:04:39.768Z,16.66
2018-06-17T01:05:38.808Z,16.55
2018-06-17T01:06:38.156Z,16.54
2018-06-17T01:07:38.809Z,16.54
2018-06-17T01:08:39.308Z,16.52
2018-06-17T01:09:41.309Z,16.51
2018-06-17T01:10:39.311Z,16.48
2018-06-17T01:12:00.309Z,16.45
2018-06-17T01:12:38.909Z,16.50
2018-06-17T01:13:39.809Z,16.47
2018-06-17T01:14:39.814Z,16.40
2018-06-17T01:15:39.808Z,16.40
2018-06-17T01:16:40.308Z,16.26
2018-06-17T01:17:40.352Z,16.30
2018-06-17T01:18:40.307Z,16.18
2018-06-17T01:19:40.309Z,16.16
2018-06-17T01:20:40.810Z,16.13
2018-06-17T01:21:42.745Z,16.10
2018-06-17T01:22:40.808Z,16.10
2018-06-17T01:23:40.806Z,15.93
2018-06-17T01:24:41.315Z,15.92
2018-06-17T01:26:02.308Z,16.01
2018-06-17T01:26:41.308Z,15.92
2018-06-17T01:27:41.308Z,16.01
2018-06-17T01:28:41.809Z,16.01
2018-06-17T01:29:41.036Z,15.93
2018-06-17T01:30:41.816Z,15.99
2018-06-17T01:31:43.306Z,15.95
2018-06-17T01:32:42.308Z,16.01
2018-06-17T01:33:42.307Z,15.95
2018-06-17T01:34:42.320Z,15.96
2018-06-17T01:35:42.310Z,15.95
2018-06-17T01:36:41.923Z,15.96
2018-06-17T01:37:42.817Z,15.98
2018-06-17T01:38:42.164Z,15.95
2018-06-17T01:39:42.258Z,15.95
2018-06-17T01:42:14.506Z,15.98
2018-06-17T01:43:14.513Z,15.98
2018-06-17T01:44:14.517Z,15.98
2018-06-17T01:45:15.018Z,15.92
2018-06-17T01:46:15.023Z,15.99
2018-06-17T01:47:15.017Z,15.92
2018-06-17T01:48:15.014Z,15.91
2018-06-17T01:49:42.514Z,15.89
2018-06-17T01:50:15.513Z,15.99
2018-06-17T01:51:16.447Z,15.93
2018-06-17T01:52:15.511Z,15.98
2018-06-17T01:53:15.517Z,16.01
2018-06-17T01:54:37.014Z,15.95
2018-06-17T01:56:47.394Z,15.91
2018-06-17T01:57:48.332Z,15.86
2018-06-17T01:58:47.401Z,15.86
2018-06-17T01:59:47.394Z,15.92
2018-06-17T02:02:40.138Z,15.91
2018-06-17T02:03:19.145Z,15.92
2018-06-17T02:04:19.145Z,15.91
2018-06-17T02:05:25.649Z,15.86
2018-06-17T02:06:42.577Z,15.91
2018-06-17T02:07:40.643Z,15.91
2018-06-17T02:08:19.642Z,15.91
2018-06-17T02:10:50.764Z,15.88
2018-06-17T02:11:51.504Z,15.85
2018-06-17T02:12:51.521Z,15.84
2018-06-17T02:13:51.099Z,15.89
2018-06-17T02:15:13.013Z,15.89
2018-06-17T02:15:52.006Z,15.91
2018-06-17T02:16:52.004Z,15.92
2018-06-17T02:17:52.007Z,15.89
2018-06-17T02:18:54.507Z,15.91
2018-06-17T02:19:52.505Z,15.88
2018-06-17T02:20:52.040Z,15.89
2018-06-17T02:21:53.006Z,15.80
2018-06-17T02:22:53.004Z,15.85
2018-06-17T02:23:53.008Z,15.76
2018-06-17T02:24:53.030Z,15.74
2018-06-17T02:25:53.505Z,15.76
2018-06-17T02:26:53.505Z,15.77
2018-06-17T02:27:53.514Z,15.76
2018-06-17T02:28:52.894Z,15.76
2018-06-17T02:29:53.506Z,15.76
2018-06-17T02:30:54.006Z,15.76
2018-06-17T02:31:54.006Z,15.73
2018-06-17T02:32:54.006Z,15.73
2018-06-17T02:33:54.006Z,15.73
2018-06-17T02:34:53.665Z,15.88
2018-06-17T02:36:16.440Z,15.88
2018-06-17T02:36:54.509Z,15.95
2018-06-17T02:37:54.505Z,16.04
2018-06-17T02:38:55.006Z,15.98
2018-06-17T02:39:55.008Z,15.98
2018-06-17T02:40:55.006Z,15.95
2018-06-17T02:41:55.006Z,15.93
2018-06-17T02:42:55.509Z,15.89
2018-06-17T02:43:55.508Z,15.84
2018-06-17T02:44:55.521Z,16.03
2018-06-17T02:45:54.977Z,15.98
2018-06-17T02:46:56.006Z,15.96
2018-06-17T02:47:56.011Z,16.04
2018-06-17T02:48:56.003Z,15.92
2018-06-17T02:49:56.009Z,15.93
2018-06-17T02:50:56.506Z,16.04
2018-06-17T02:52:10.514Z,15.93
2018-06-17T02:52:56.505Z,15.99
2018-06-17T02:53:56.523Z,16.11
2018-06-17T02:55:11.013Z,16.11
2018-06-17T02:55:59.005Z,16.08
2018-06-17T02:57:22.438Z,16.01
2018-06-17T02:57:56.473Z,15.96
2018-06-17T02:58:57.506Z,15.96
2018-06-17T02:59:57.513Z,15.95
2018-06-17T03:00:57.504Z,16.08
2018-06-17T03:01:57.505Z,15.96
2018-06-17T03:02:58.007Z,16.03
2018-06-17T03:03:58.107Z,15.95
2018-06-17T03:04:58.013Z,15.95
2018-06-17T03:05:58.007Z,15.91
2018-06-17T03:07:20.938Z,15.93
2018-06-17T03:07:58.526Z,15.98
2018-06-17T03:08:58.514Z,15.96
2018-06-17T03:09:58.506Z,16.01
2018-06-17T03:10:59.006Z,16.01
2018-06-17T03:11:59.015Z,16.01
2018-06-17T03:12:59.007Z,16.13
2018-06-17T03:13:59.006Z,16.13
2018-06-17T03:16:30.759Z,16.25
2018-06-17T03:17:30.770Z,16.26
2018-06-17T03:18:31.765Z,16.33
2018-06-17T03:19:45.265Z,16.29
2018-06-17T03:20:31.266Z,16.30
2018-06-17T03:21:52.267Z,16.32
2018-06-17T03:22:31.273Z,16.36
2018-06-17T03:23:31.767Z,16.37
2018-06-17T03:24:31.766Z,16.40
2018-06-17T03:25:52.767Z,16.40
2018-06-17T03:26:31.766Z,16.44
2018-06-17T03:27:53.281Z,16.48
2018-06-17T03:28:32.266Z,16.44
2018-06-17T03:29:34.266Z,16.44
2018-06-17T03:30:32.268Z,16.50
2018-06-17T03:31:33.719Z,16.54
2018-06-17T03:32:53.772Z,16.60
2018-06-17T03:36:35.571Z,16.59
2018-06-17T03:37:34.920Z,16.62
2018-06-17T03:38:35.586Z,16.59
2018-06-17T03:39:35.185Z,16.59
2018-06-17T03:40:37.080Z,16.66
2018-06-17T03:41:37.047Z,16.73
2018-06-17T03:42:36.073Z,16.72
2018-06-17T03:43:38.576Z,16.70
2018-06-17T03:44:57.581Z,16.65
2018-06-17T03:45:38.011Z,16.70
2018-06-17T03:46:38.556Z,16.77
2018-06-17T03:50:39.730Z,16.82
2018-06-17T03:52:00.739Z,16.80
2018-06-17T03:52:39.742Z,16.80
2018-06-17T03:53:40.238Z,16.87
2018-06-17T03:54:39.461Z,16.82
2018-06-17T03:55:40.239Z,16.98
2018-06-17T03:56:40.290Z,16.90
2018-06-17T03:58:01.739Z,16.87
2018-06-17T03:58:40.746Z,16.95
2018-06-17T03:59:40.737Z,16.91
2018-06-17T04:01:01.738Z,16.91
2018-06-17T04:01:40.739Z,16.92
2018-06-17T04:02:41.240Z,17.02
2018-06-17T04:03:41.742Z,16.96
2018-06-17T04:04:41.236Z,17.03
2018-06-17T04:05:41.245Z,16.96
2018-06-17T04:06:43.741Z,16.92
2018-06-17T04:07:41.734Z,16.88
2018-06-17T04:08:42.671Z,16.91
2018-06-17T04:09:41.747Z,16.82
2018-06-17T04:10:42.240Z,16.87
2018-06-17T04:11:42.239Z,16.87
2018-06-17T04:12:42.248Z,16.82
2018-06-17T04:13:42.239Z,16.87
2018-06-17T04:15:03.737Z,16.99
2018-06-17T04:16:03.766Z,17.00
2018-06-17T04:16:42.741Z,16.98
2018-06-17T04:17:42.739Z,17.03
2018-06-17T04:18:44.172Z,17.00
2018-06-17T04:19:44.702Z,17.03
2018-06-17T04:20:43.240Z,17.06
2018-06-17T04:21:43.238Z,17.05
2018-06-17T04:23:04.739Z,17.07
2018-06-17T04:23:44.712Z,17.14
2018-06-17T04:24:43.737Z,17.12
2018-06-17T04:25:43.279Z,17.14
2018-06-17T04:26:43.340Z,17.25
2018-06-17T04:27:44.238Z,17.25
2018-06-17T04:28:43.623Z,17.33
2018-06-17T04:29:44.245Z,17.32
2018-06-17T04:30:44.738Z,17.30
2018-06-17T04:32:05.739Z,17.39
2018-06-17T04:32:45.740Z,17.38
2018-06-17T04:33:44.742Z,17.42
2018-06-17T04:34:44.337Z,17.40
2018-06-17T04:36:06.238Z,17.51
2018-06-17T04:37:05.752Z,17.57
2018-06-17T04:37:45.242Z,17.57
2018-06-17T04:38:44.838Z,17.49
2018-06-17T04:39:45.740Z,17.53
2018-06-17T04:40:45.740Z,17.57
2018-06-17T04:41:45.218Z,17.57
2018-06-17T04:42:46.239Z,17.66
2018-06-17T04:43:46.239Z,17.68
2018-06-17T04:44:46.235Z,17.68
2018-06-17T04:45:46.244Z,17.74
2018-06-17T04:48:17.977Z,17.76
2018-06-17T04:49:17.987Z,17.71
2018-06-17T04:50:17.987Z,17.73
2018-06-17T04:51:38.569Z,17.81
2018-06-17T04:52:18.487Z,17.79
2018-06-17T04:53:18.487Z,17.79
2018-06-17T04:54:18.487Z,17.87
2018-06-17T04:55:18.087Z,17.87
2018-06-17T04:56:19.948Z,17.89
2018-06-17T04:57:19.919Z,18.01
2018-06-17T04:58:18.992Z,17.96
2018-06-17T04:59:19.490Z,17.99
2018-06-17T05:00:19.487Z,18.02
2018-06-17T05:01:40.487Z,18.04
2018-06-17T05:02:19.495Z,18.10
2018-06-17T05:03:19.987Z,18.17
2018-06-17T05:04:19.984Z,18.05
2018-06-17T05:05:19.987Z,18.04
2018-06-17T05:06:20.022Z,18.02
2018-06-17T05:07:20.492Z,18.10
2018-06-17T05:08:20.487Z,18.01
2018-06-17T05:10:51.991Z,18.05
2018-06-17T05:11:52.003Z,18.10
2018-06-17T05:12:51.999Z,18.10
2018-06-17T05:13:52.499Z,18.13
2018-06-17T05:14:52.499Z,18.11
2018-06-17T05:15:52.496Z,18.21
2018-06-17T05:16:52.509Z,18.20
2018-06-17T05:17:52.999Z,18.13
2018-06-17T05:18:52.999Z,18.25
2018-06-17T05:19:53.048Z,18.31
2018-06-17T05:20:53.021Z,18.34
2018-06-17T05:21:53.499Z,18.38
2018-06-17T05:23:07.500Z,18.41
2018-06-17T05:23:53.499Z,18.39
2018-06-17T05:24:53.500Z,18.51
2018-06-17T05:25:54.003Z,18.59
2018-06-17T05:28:25.388Z,18.82
2018-06-17T05:30:56.885Z,18.79
2018-06-17T05:33:31.568Z,18.83
2018-06-17T05:34:31.028Z,18.89
2018-06-17T05:35:29.574Z,18.90
2018-06-17T05:36:29.574Z,18.94
2018-06-17T05:37:30.075Z,19.01
2018-06-17T05:38:31.035Z,19.01
2018-06-17T05:39:51.075Z,18.96
2018-06-17T05:40:32.075Z,19.01
2018-06-17T05:41:46.030Z,19.05
2018-06-17T05:42:51.583Z,19.05
2018-06-17T05:43:51.579Z,19.17
2018-06-17T05:44:30.575Z,19.17
2018-06-17T05:45:52.076Z,19.24
2018-06-17T05:46:31.080Z,19.24
2018-06-17T05:47:31.105Z,19.32
2018-06-17T05:48:52.080Z,19.23
2018-06-17T05:49:52.575Z,19.35
2018-06-17T05:50:31.575Z,19.38
2018-06-17T05:51:31.575Z,19.42
2018-06-17T05:52:31.576Z,19.49
2018-06-17T05:53:53.076Z,19.47
2018-06-17T05:54:32.075Z,19.49
2018-06-17T05:55:33.094Z,19.53
2018-06-17T05:56:32.075Z,19.53
2018-06-17T05:57:53.582Z,19.53
2018-06-17T05:58:32.575Z,19.55
2018-06-17T05:59:52.930Z,19.67
2018-06-17T06:00:32.575Z,19.61
2018-06-17T06:01:53.159Z,19.64
2018-06-17T06:02:54.073Z,19.62
2018-06-17T06:03:48.547Z,19.62
2018-06-17T06:04:35.008Z,19.53
2018-06-17T06:05:33.575Z,19.67
2018-06-17T06:06:54.576Z,19.64
2018-06-17T06:07:33.583Z,19.68
2018-06-17T06:08:33.573Z,19.75
2018-06-17T06:09:34.075Z,19.72
2018-06-17T06:10:54.310Z,19.71
2018-06-17T06:11:34.075Z,19.75
2018-06-17T06:12:40.009Z,19.78
2018-06-17T06:13:55.574Z,19.79
2018-06-17T06:14:34.576Z,19.86
2018-06-17T06:15:36.008Z,19.89
2018-06-17T06:16:34.575Z,19.89
2018-06-17T06:17:56.079Z,19.83
2018-06-17T06:18:35.077Z,19.85
2018-06-17T06:19:34.423Z,19.86
2018-06-17T06:20:36.074Z,19.79
2018-06-17T06:21:35.575Z,19.83
2018-06-17T06:22:37.581Z,19.80
2018-06-17T06:23:35.575Z,19.76
2018-06-17T06:24:35.597Z,19.79
2018-06-17T06:25:38.549Z,19.72
2018-06-17T06:26:50.076Z,19.85
2018-06-17T06:27:36.082Z,19.75
2018-06-17T06:28:36.085Z,19.78
2018-06-17T06:29:57.576Z,19.87
2018-06-17T06:30:42.576Z,19.90
2018-06-17T06:33:07.386Z,20.00
2018-06-17T06:34:08.111Z,20.01
2018-06-17T06:35:07.593Z,20.10
2018-06-17T06:36:22.614Z,20.16
2018-06-17T06:37:08.619Z,20.19
2018-06-17T06:38:10.049Z,20.02
2018-06-17T06:39:08.620Z,20.15
2018-06-17T06:40:08.613Z,20.07
2018-06-17T06:42:40.363Z,20.04
2018-06-17T06:43:40.372Z,20.02
2018-06-17T06:44:40.371Z,19.89
2018-06-17T06:45:40.903Z,19.97
2018-06-17T06:46:40.879Z,19.98
2018-06-17T06:47:40.874Z,19.89
2018-06-17T06:48:40.876Z,19.86
2018-06-17T06:49:41.371Z,19.87
2018-06-17T06:50:41.370Z,20.04
2018-06-17T06:51:41.379Z,19.98
2018-06-17T06:52:41.384Z,19.95
2018-06-17T06:53:41.872Z,19.80
2018-06-17T06:54:41.925Z,19.87
2018-06-17T06:55:41.874Z,19.90
2018-06-17T06:56:41.870Z,20.00
2018-06-17T06:57:42.370Z,19.92
2018-06-17T06:58:42.408Z,20.02
2018-06-17T06:59:42.372Z,20.15
2018-06-17T07:00:42.372Z,20.12
2018-06-17T07:01:42.873Z,20.15
2018-06-17T07:02:42.871Z,20.25
2018-06-17T07:03:42.872Z,20.19
2018-06-17T07:04:42.872Z,20.22
2018-06-17T07:05:44.334Z,20.23
2018-06-17T07:06:44.369Z,20.38
2018-06-17T07:07:43.391Z,20.46
2018-06-17T07:08:44.369Z,20.40
2018-06-17T07:09:43.876Z,20.40
2018-06-17T07:10:43.901Z,20.37
2018-06-17T07:11:43.254Z,20.56
2018-06-17T07:12:43.878Z,20.68
2018-06-17T07:13:44.374Z,20.51
2018-06-17T07:14:44.371Z,20.60
2018-06-17T07:15:44.371Z,20.71
2018-06-17T07:16:43.887Z,20.81
2018-06-17T07:17:44.870Z,20.76
2018-06-17T07:18:44.876Z,20.73
2018-06-17T07:19:44.871Z,20.91
2018-06-17T07:20:44.872Z,20.96
2018-06-17T07:21:45.375Z,20.83
2018-06-17T07:22:45.383Z,20.81
2018-06-17T07:23:45.372Z,20.96
2018-06-17T07:24:45.372Z,20.88
2018-06-17T07:26:06.872Z,20.85
2018-06-17T07:27:06.873Z,20.91
2018-06-17T07:28:06.207Z,21.15
2018-06-17T07:28:45.875Z,21.16
2018-06-17T07:29:48.806Z,21.22
2018-06-17T07:30:45.553Z,21.30
2018-06-17T07:31:48.331Z,21.42
2018-06-17T07:32:46.375Z,21.49
2018-06-17T07:33:46.870Z,21.58
2018-06-17T07:34:46.872Z,21.64
2018-06-17T07:35:46.872Z,21.68
2018-06-17T07:36:48.308Z,21.70
2018-06-17T07:37:47.374Z,21.90
2018-06-17T07:38:48.842Z,21.99
2018-06-17T07:39:47.373Z,22.02
2018-06-17T07:40:47.423Z,22.11
2018-06-17T07:41:47.873Z,22.20
2018-06-17T07:42:51.335Z,22.30
2018-06-17T07:43:47.903Z,22.35
2018-06-17T07:44:47.872Z,22.42
2018-06-17T07:47:40.626Z,22.26
2018-06-17T07:48:21.646Z,22.05
2018-06-17T07:49:19.661Z,21.98
2018-06-17T07:50:20.133Z,21.83
2018-06-17T07:51:20.130Z,21.75
2018-06-17T07:52:20.136Z,21.77
2018-06-17T07:53:20.140Z,21.98
2018-06-17T07:54:20.633Z,21.86
2018-06-17T07:55:20.633Z,21.99
2018-06-17T07:56:20.640Z,22.12
2018-06-17T07:57:20.633Z,21.93
2018-06-17T07:58:20.253Z,21.91
2018-06-17T07:59:20.352Z,22.01
2018-06-17T08:00:21.133Z,22.01
2018-06-17T08:01:42.133Z,22.04
2018-06-17T08:02:21.638Z,22.11
2018-06-17T08:03:42.636Z,22.08
2018-06-17T08:04:21.634Z,22.29
2018-06-17T08:05:21.636Z,22.39
2018-06-17T08:06:22.142Z,22.29
2018-06-17T08:07:22.134Z,22.36
2018-06-17T08:08:21.487Z,22.33
2018-06-17T08:09:22.134Z,22.46
2018-06-17T08:10:43.645Z,22.57
2018-06-17T08:11:22.635Z,22.64
2018-06-17T08:12:22.631Z,22.63
2018-06-17T08:13:22.638Z,22.54
2018-06-17T08:14:22.246Z,22.61
2018-06-17T08:15:23.135Z,22.78
2018-06-17T08:16:25.134Z,22.82
2018-06-17T08:17:23.141Z,22.81
2018-06-17T08:18:23.670Z,22.93
2018-06-17T08:19:23.634Z,22.91
2018-06-17T08:20:23.634Z,23.12
2018-06-17T08:21:23.634Z,23.15
2018-06-17T08:22:24.167Z,23.19
2018-06-17T08:23:24.143Z,23.26
2018-06-17T08:24:24.134Z,23.41
2018-06-17T08:25:24.135Z,23.44
2018-06-17T08:26:24.647Z,23.47
2018-06-17T08:27:24.635Z,23.37
2018-06-17T08:28:24.635Z,23.31
2018-06-17T08:29:24.634Z,23.29
2018-06-17T08:30:25.187Z,23.31
2018-06-17T08:31:25.135Z,23.49
2018-06-17T08:32:25.140Z,23.62
2018-06-17T08:33:25.140Z,23.74
2018-06-17T08:34:49.569Z,23.67
2018-06-17T08:35:25.635Z,23.63
2018-06-17T08:36:27.110Z,23.42
2018-06-17T08:37:25.645Z,23.25
2018-06-17T08:39:57.409Z,23.16
2018-06-17T08:40:57.417Z,22.99
2018-06-17T08:42:18.418Z,22.89
2018-06-17T08:43:11.922Z,22.82
2018-06-17T08:44:18.126Z,22.85
2018-06-17T08:44:57.917Z,22.81
2018-06-17T08:45:57.917Z,22.61
2018-06-17T08:46:57.555Z,22.56
2018-06-17T08:48:19.423Z,22.52
2018-06-17T08:48:58.421Z,22.57
2018-06-17T08:49:58.414Z,22.54
2018-06-17T08:50:58.917Z,22.60
2018-06-17T08:51:58.143Z,22.74
2018-06-17T08:52:58.927Z,22.61
2018-06-17T08:53:58.917Z,22.69
2018-06-17T08:54:58.536Z,22.66
2018-06-17T08:56:00.377Z,22.75
2018-06-17T08:56:59.418Z,22.86
2018-06-17T08:57:59.414Z,22.96
2018-06-17T09:00:30.475Z,23.32
2018-06-17T09:01:31.215Z,23.26
2018-06-17T09:02:31.211Z,23.38
2018-06-17T09:03:52.722Z,23.19
2018-06-17T09:04:31.710Z,23.16
2018-06-17T09:05:31.715Z,23.23
2018-06-17T09:06:31.712Z,23.15
2018-06-17T09:07:46.211Z,23.03
2018-06-17T09:10:03.596Z,23.01
2018-06-17T09:11:03.610Z,23.12
2018-06-17T09:12:03.652Z,23.25
2018-06-17T09:13:05.045Z,23.44
2018-06-17T09:14:04.112Z,23.52
2018-06-17T09:15:03.488Z,23.56
2018-06-17T09:16:03.597Z,23.60
2018-06-17T09:17:04.610Z,23.63
2018-06-17T09:18:04.610Z,23.56
2018-06-17T09:19:04.610Z,23.45
2018-06-17T09:20:04.611Z,23.57
2018-06-17T09:21:05.111Z,23.45
2018-06-17T09:22:05.110Z,23.44
2018-06-17T09:23:25.444Z,23.37
2018-06-17T09:24:05.114Z,23.26
2018-06-17T09:25:04.721Z,23.12
2018-06-17T09:26:05.615Z,23.12
2018-06-17T09:27:10.543Z,23.15
2018-06-17T09:28:05.093Z,23.09
2018-06-17T09:29:06.111Z,23.14
2018-06-17T09:30:07.584Z,23.11
2018-06-17T09:31:06.112Z,22.89
2018-06-17T09:32:06.193Z,22.96
2018-06-17T09:33:27.627Z,23.06
2018-06-17T09:34:09.043Z,23.01
2018-06-17T09:35:27.611Z,22.94
2018-06-17T09:36:06.611Z,22.88
2018-06-17T09:37:06.239Z,22.82
2018-06-17T09:38:07.115Z,22.88
2018-06-17T09:40:38.622Z,22.79
2018-06-17T09:41:38.629Z,22.76
2018-06-17T09:42:38.639Z,22.75
2018-06-17T09:43:40.591Z,22.84
2018-06-17T09:44:40.084Z,22.75
2018-06-17T09:46:00.126Z,22.85
2018-06-17T09:46:39.128Z,23.01
2018-06-17T09:48:00.625Z,23.03
2018-06-17T09:48:39.632Z,23.19
2018-06-17T09:49:39.626Z,23.23
2018-06-17T09:50:39.627Z,23.44
2018-06-17T09:51:46.127Z,23.49
2018-06-17T09:52:40.128Z,23.57
2018-06-17T09:53:40.126Z,23.62
2018-06-17T09:54:40.127Z,23.87
2018-06-17T09:55:40.640Z,23.96
2018-06-17T09:57:03.106Z,24.11
2018-06-17T09:57:40.628Z,24.24
2018-06-17T09:58:40.626Z,24.41
2018-06-17T09:59:41.128Z,24.55
2018-06-17T10:00:41.130Z,24.60
2018-06-17T10:01:41.136Z,24.71
2018-06-17T10:02:41.133Z,24.64
2018-06-17T10:03:41.628Z,24.67
2018-06-17T10:05:02.629Z,24.67
2018-06-17T10:05:41.632Z,24.87
2018-06-17T10:06:41.636Z,24.90
2018-06-17T10:07:42.129Z,24.89
2018-06-17T10:08:42.130Z,25.02
2018-06-17T10:09:41.491Z,25.09
2018-06-17T10:11:03.133Z,25.08
2018-06-17T10:11:42.635Z,25.20
2018-06-17T10:12:42.628Z,25.08
2018-06-17T10:13:42.630Z,25.07
2018-06-17T10:14:42.628Z,24.55
2018-06-17T10:15:43.138Z,24.23
2018-06-17T10:16:43.132Z,24.21
2018-06-17T10:17:43.132Z,23.96
2018-06-17T10:18:43.129Z,23.84
2018-06-17T10:19:42.734Z,23.82
2018-06-17T10:20:43.630Z,23.68
2018-06-17T10:21:43.627Z,23.74
2018-06-17T10:22:43.631Z,23.63
2018-06-17T10:24:05.130Z,23.57
2018-06-17T10:24:43.363Z,23.57
2018-06-17T10:25:44.129Z,23.62
2018-06-17T10:26:43.648Z,23.53
2018-06-17T10:27:43.737Z,23.49
2018-06-17T10:29:05.630Z,23.53
2018-06-17T10:29:44.629Z,23.59
2018-06-17T10:30:50.632Z,23.62
2018-06-17T10:31:44.296Z,23.72
2018-06-17T10:33:07.062Z,23.72
2018-06-17T10:33:45.130Z,23.71
2018-06-17T10:34:45.131Z,23.64
2018-06-17T10:36:06.629Z,23.63
2018-06-17T10:36:45.628Z,23.62
2018-06-17T10:37:45.630Z,23.59
2018-06-17T10:38:45.629Z,23.60
2018-06-17T10:41:17.396Z,23.54
2018-06-17T10:42:17.403Z,23.49
2018-06-17T10:43:16.916Z,23.45
2018-06-17T10:44:38.905Z,23.31
2018-06-17T10:45:17.903Z,23.19
2018-06-17T10:46:17.898Z,23.19
2018-06-17T10:47:17.902Z,23.12
2018-06-17T10:48:20.409Z,23.15
2018-06-17T10:49:18.404Z,23.06
2018-06-17T10:50:20.460Z,23.00
2018-06-17T10:51:18.407Z,22.89
2018-06-17T10:52:18.904Z,22.93
2018-06-17T10:53:18.903Z,23.09
2018-06-17T10:54:18.903Z,22.93
2018-06-17T10:55:18.950Z,23.06
2018-06-17T10:56:19.439Z,23.15
2018-06-17T10:57:19.421Z,23.11
2018-06-17T10:58:19.438Z,23.19
2018-06-17T10:59:19.404Z,23.23
2018-06-17T11:00:19.907Z,23.38
2018-06-17T11:01:40.905Z,23.42
2018-06-17T11:02:19.261Z,23.39
2018-06-17T11:03:19.904Z,23.45
2018-06-17T11:04:41.407Z,23.44
2018-06-17T11:05:20.450Z,23.42
2018-06-17T11:06:20.405Z,23.54
2018-06-17T11:07:20.403Z,23.60
2018-06-17T11:08:20.009Z,23.57
2018-06-17T11:09:20.903Z,23.62
2018-06-17T11:10:20.905Z,23.64
2018-06-17T11:11:42.414Z,23.49
2018-06-17T11:12:21.405Z,23.42
2018-06-17T11:13:20.684Z,23.53
2018-06-17T11:14:21.409Z,23.49
2018-06-17T11:15:20.888Z,23.45
2018-06-17T11:16:42.906Z,23.38
2018-06-17T11:17:42.903Z,23.38
2018-06-17T11:18:21.918Z,23.32
2018-06-17T11:19:21.905Z,23.41
2018-06-17T11:20:22.405Z,23.45
2018-06-17T11:21:25.339Z,23.52
2018-06-17T11:22:22.429Z,23.54
2018-06-17T11:23:43.406Z,23.53
2018-06-17T11:24:22.905Z,23.67
2018-06-17T11:25:22.909Z,23.54
2018-06-17T11:26:22.945Z,23.54
2018-06-17T11:27:44.406Z,23.63
2018-06-17T11:29:53.952Z,23.74
2018-06-17T11:30:54.675Z,23.68
2018-06-17T11:31:54.676Z,23.87
2018-06-17T11:33:17.146Z,23.96
2018-06-17T11:34:01.201Z,24.16
2018-06-17T11:36:26.157Z,24.31
2018-06-17T11:37:28.523Z,24.53
2018-06-17T11:38:27.092Z,24.56
2018-06-17T11:39:27.091Z,24.45
2018-06-17T11:40:27.089Z,24.46
2018-06-17T11:41:27.591Z,24.70
2018-06-17T11:42:27.591Z,24.77
2018-06-17T11:43:27.592Z,24.90
2018-06-17T11:44:28.554Z,24.89
2018-06-17T11:45:28.091Z,24.84
2018-06-17T11:46:49.099Z,24.66
2018-06-17T11:47:49.091Z,24.59
2018-06-17T11:48:28.091Z,24.46
2018-06-17T11:49:49.591Z,24.42
2018-06-17T11:50:28.593Z,24.15
2018-06-17T11:51:28.621Z,24.21
2018-06-17T11:52:28.593Z,24.18
2018-06-17T11:53:29.093Z,24.27
2018-06-17T11:54:29.099Z,24.27
2018-06-17T11:55:29.092Z,24.21
2018-06-17T11:56:29.093Z,24.24
2018-06-17T11:57:29.592Z,24.11
2018-06-17T11:58:29.592Z,24.06
2018-06-17T11:59:29.592Z,24.18
2018-06-17T12:00:30.107Z,24.02
2018-06-17T12:01:30.092Z,24.06
2018-06-17T12:02:29.323Z,24.18
2018-06-17T12:03:32.092Z,24.23
2018-06-17T12:04:29.579Z,24.23
2018-06-17T12:05:30.595Z,24.19
2018-06-17T12:06:30.593Z,24.27
2018-06-17T12:07:31.591Z,24.23
2018-06-17T12:08:30.593Z,24.36
2018-06-17T12:11:02.361Z,24.70
2018-06-17T12:13:02.368Z,24.64
2018-06-17T12:15:34.136Z,24.59
2018-06-17T12:16:34.144Z,24.59
2018-06-17T12:17:34.143Z,24.45
2018-06-17T12:18:34.645Z,24.48
2018-06-17T12:19:34.643Z,24.48
2018-06-17T12:20:34.646Z,24.37
2018-06-17T12:21:34.652Z,24.39
2018-06-17T12:22:56.143Z,24.48
2018-06-17T12:23:35.143Z,24.46
2018-06-17T12:24:35.150Z,24.41
2018-06-17T12:25:35.144Z,24.61
2018-06-17T12:26:35.647Z,24.56
2018-06-17T12:27:35.648Z,24.60
2018-06-17T12:28:35.644Z,24.67
2018-06-17T12:29:35.646Z,24.67
2018-06-17T12:30:36.149Z,24.75
2018-06-17T12:31:39.126Z,24.99
2018-06-17T12:32:38.620Z,25.14
2018-06-17T12:33:36.145Z,25.22
2018-06-17T12:36:07.902Z,25.66
2018-06-17T12:37:07.910Z,25.83
2018-06-17T12:38:07.397Z,26.09
2018-06-17T12:39:29.421Z,26.29
2018-06-17T12:40:07.654Z,26.41
2018-06-17T12:41:07.764Z,26.61
2018-06-17T12:42:08.415Z,26.66
2018-06-17T12:43:08.017Z,26.90
2018-06-17T12:44:08.909Z,26.90
2018-06-17T12:45:29.912Z,26.90
2018-06-17T12:46:08.911Z,26.91
2018-06-17T12:47:09.411Z,26.83
2018-06-17T12:48:09.413Z,27.01
2018-06-17T12:49:09.459Z,26.76
2018-06-17T12:51:46.564Z,26.01
2018-06-17T12:52:43.064Z,25.78
2018-06-17T12:53:41.644Z,25.63
2018-06-17T12:54:41.759Z,25.44
2018-06-17T12:55:43.065Z,25.38
2018-06-17T12:56:42.138Z,25.44
2018-06-17T12:57:42.137Z,25.24
2018-06-17T12:58:42.131Z,25.20
2018-06-17T12:59:42.633Z,25.23
2018-06-17T13:00:42.633Z,25.29
2018-06-17T13:01:42.633Z,25.26
2018-06-17T13:02:42.633Z,25.29
2018-06-17T13:03:43.134Z,25.36
2018-06-17T13:04:43.163Z,25.29
2018-06-17T13:05:43.134Z,25.38
2018-06-17T13:06:43.639Z,25.57
2018-06-17T13:07:43.655Z,25.79
2018-06-17T13:08:43.639Z,26.03
2018-06-17T13:09:43.634Z,26.04
2018-06-17T13:10:43.761Z,26.03
2018-06-17T13:11:44.134Z,25.94
2018-06-17T13:12:44.163Z,25.93
2018-06-17T13:13:46.134Z,25.94
2018-06-17T13:14:44.134Z,25.93
2018-06-17T13:15:43.741Z,25.89
2018-06-17T13:16:43.850Z,25.79
2018-06-17T13:17:44.641Z,25.67
2018-06-17T13:18:44.634Z,25.56
2018-06-17T13:19:45.136Z,25.63
2018-06-17T13:20:45.136Z,25.76
2018-06-17T13:21:45.135Z,25.85
2018-06-17T13:23:07.142Z,26.03
2018-06-17T13:23:48.066Z,26.12
2018-06-17T13:24:45.635Z,26.27
2018-06-17T13:25:45.637Z,26.59
2018-06-17T13:26:45.636Z,26.59
2018-06-17T13:27:46.151Z,26.54
2018-06-17T13:28:46.134Z,26.35
2018-06-17T13:29:45.505Z,26.34
2018-06-17T13:30:46.135Z,26.32
2018-06-17T13:31:45.745Z,26.31
2018-06-17T13:32:47.633Z,26.29
2018-06-17T13:33:46.635Z,26.19
2018-06-17T13:34:49.136Z,25.96
2018-06-17T13:36:08.153Z,26.04
2018-06-17T13:36:47.137Z,25.96
2018-06-17T13:37:47.141Z,25.85
2018-06-17T13:38:47.136Z,25.66
2018-06-17T13:39:47.636Z,25.71
2018-06-17T13:40:47.635Z,25.75